sensor_id;sensor_type;location;lat;lon;timestamp;P1;durP1;ratioP1;P2;durP2;ratioP2
38785;SDS011;24535;45.508;12.252;2023-01-19T00:01:21;56.60;;;44.88;;
38785;SDS011;24535;45.508;12.252;2023-01-19T00:03:47;63.75;;;46.28;;
38785;SDS011;24535;45.508;12.252;2023-01-19T00:06:13;57.90;;;44.90;;
38785;SDS011;24535;45.508;12.252;2023-01-19T00:08:38;65.10;;;46.17;;
38785;SDS011;24535;45.508;12.252;2023-01-19T00:11:13;60.30;;;44.63;;
38785;SDS011;24535;45.508;12.252;2023-01-19T00:13:38;60.03;;;45.53;;
38785;SDS011;24535;45.508;12.252;2023-01-19T00:16:04;60.90;;;46.22;;
38785;SDS011;24535;45.508;12.252;2023-01-19T00:18:31;62.78;;;47.92;;
38785;SDS011;24535;45.508;12.252;2023-01-19T00:20:57;66.45;;;46.13;;
38785;SDS011;24535;45.508;12.252;2023-01-19T00:23:22;63.53;;;47.65;;
38785;SDS011;24535;45.508;12.252;2023-01-19T00:25:48;65.28;;;45.63;;
38785;SDS011;24535;45.508;12.252;2023-01-19T00:28:15;60.97;;;45.83;;
38785;SDS011;24535;45.508;12.252;2023-01-19T00:30:42;58.97;;;45.97;;
38785;SDS011;24535;45.508;12.252;2023-01-19T00:33:09;60.80;;;44.58;;
38785;SDS011;24535;45.508;12.252;2023-01-19T00:35:38;56.90;;;42.40;;
38785;SDS011;24535;45.508;12.252;2023-01-19T00:38:04;55.50;;;41.63;;
38785;SDS011;24535;45.508;12.252;2023-01-19T00:40:29;53.80;;;41.88;;
38785;SDS011;24535;45.508;12.252;2023-01-19T00:42:55;59.60;;;43.35;;
38785;SDS011;24535;45.508;12.252;2023-01-19T00:45:21;56.80;;;42.28;;
38785;SDS011;24535;45.508;12.252;2023-01-19T00:47:48;55.08;;;42.42;;
38785;SDS011;24535;45.508;12.252;2023-01-19T00:50:21;55.72;;;42.38;;
38785;SDS011;24535;45.508;12.252;2023-01-19T00:52:47;59.08;;;44.22;;
38785;SDS011;24535;45.508;12.252;2023-01-19T00:55:14;58.58;;;42.97;;
38785;SDS011;24535;45.508;12.252;2023-01-19T00:57:40;53.55;;;41.65;;
38785;SDS011;24535;45.508;12.252;2023-01-19T01:00:07;59.75;;;43.65;;
38785;SDS011;24535;45.508;12.252;2023-01-19T01:02:35;58.20;;;44.53;;
38785;SDS011;24535;45.508;12.252;2023-01-19T01:05:05;53.50;;;42.80;;
38785;SDS011;24535;45.508;12.252;2023-01-19T01:07:32;56.55;;;43.70;;
38785;SDS011;24535;45.508;12.252;2023-01-19T01:10:13;59.05;;;42.22;;
38785;SDS011;24535;45.508;12.252;2023-01-19T01:12:47;53.78;;;41.25;;
38785;SDS011;24535;45.508;12.252;2023-01-19T01:15:13;57.70;;;41.38;;
38785;SDS011;24535;45.508;12.252;2023-01-19T01:17:40;58.95;;;43.58;;
38785;SDS011;24535;45.508;12.252;2023-01-19T01:20:21;57.72;;;43.30;;
38785;SDS011;24535;45.508;12.252;2023-01-19T01:22:50;52.97;;;41.83;;
38785;SDS011;24535;45.508;12.252;2023-01-19T01:25:17;56.88;;;43.53;;
38785;SDS011;24535;45.508;12.252;2023-01-19T01:27:43;61.22;;;46.58;;
38785;SDS011;24535;45.508;12.252;2023-01-19T01:30:10;56.75;;;42.67;;
38785;SDS011;24535;45.508;12.252;2023-01-19T01:32:37;58.00;;;44.25;;
38785;SDS011;24535;45.508;12.252;2023-01-19T01:35:03;63.92;;;45.00;;
38785;SDS011;24535;45.508;12.252;2023-01-19T01:37:29;59.25;;;44.42;;
38785;SDS011;24535;45.508;12.252;2023-01-19T01:39:54;58.22;;;42.53;;
38785;SDS011;24535;45.508;12.252;2023-01-19T01:42:24;57.58;;;44.25;;
38785;SDS011;24535;45.508;12.252;2023-01-19T01:44:52;51.65;;;40.63;;
38785;SDS011;24535;45.508;12.252;2023-01-19T01:47:27;53.15;;;40.75;;
38785;SDS011;24535;45.508;12.252;2023-01-19T01:50:05;46.17;;;38.03;;
38785;SDS011;24535;45.508;12.252;2023-01-19T01:52:51;49.40;;;39.30;;
38785;SDS011;24535;45.508;12.252;2023-01-19T01:55:18;50.70;;;39.67;;
38785;SDS011;24535;45.508;12.252;2023-01-19T01:57:47;53.78;;;41.15;;
38785;SDS011;24535;45.508;12.252;2023-01-19T02:00:16;61.78;;;43.42;;
38785;SDS011;24535;45.508;12.252;2023-01-19T02:02:42;49.40;;;38.85;;
38785;SDS011;24535;45.508;12.252;2023-01-19T02:05:28;56.20;;;41.63;;
38785;SDS011;24535;45.508;12.252;2023-01-19T02:08:02;55.83;;;43.15;;
38785;SDS011;24535;45.508;12.252;2023-01-19T02:10:48;55.13;;;42.60;;
38785;SDS011;24535;45.508;12.252;2023-01-19T02:13:34;53.55;;;42.85;;
38785;SDS011;24535;45.508;12.252;2023-01-19T02:16:05;55.13;;;42.80;;
38785;SDS011;24535;45.508;12.252;2023-01-19T02:18:32;52.50;;;41.03;;
38785;SDS011;24535;45.508;12.252;2023-01-19T02:23:55;45.50;;;37.45;;
38785;SDS011;24535;45.508;12.252;2023-01-19T02:26:23;54.22;;;40.55;;
38785;SDS011;24535;45.508;12.252;2023-01-19T02:28:54;53.95;;;42.40;;
38785;SDS011;24535;45.508;12.252;2023-01-19T02:31:21;49.17;;;40.10;;
38785;SDS011;24535;45.508;12.252;2023-01-19T02:33:47;53.85;;;42.33;;
38785;SDS011;24535;45.508;12.252;2023-01-19T02:36:14;58.35;;;42.67;;
38785;SDS011;24535;45.508;12.252;2023-01-19T02:38:42;59.90;;;43.05;;
38785;SDS011;24535;45.508;12.252;2023-01-19T02:41:11;57.03;;;44.72;;
38785;SDS011;24535;45.508;12.252;2023-01-19T02:43:42;55.15;;;43.38;;
38785;SDS011;24535;45.508;12.252;2023-01-19T02:46:09;58.17;;;43.38;;
38785;SDS011;24535;45.508;12.252;2023-01-19T02:48:34;59.92;;;44.65;;
38785;SDS011;24535;45.508;12.252;2023-01-19T02:51:00;57.13;;;43.42;;
38785;SDS011;24535;45.508;12.252;2023-01-19T02:53:43;57.80;;;44.75;;
38785;SDS011;24535;45.508;12.252;2023-01-19T03:12:46;58.83;;;43.92;;
38785;SDS011;24535;45.508;12.252;2023-01-19T03:15:19;61.70;;;45.33;;
38785;SDS011;24535;45.508;12.252;2023-01-19T03:18:05;55.00;;;43.00;;
38785;SDS011;24535;45.508;12.252;2023-01-19T03:20:34;58.53;;;45.05;;
38785;SDS011;24535;45.508;12.252;2023-01-19T03:23:01;59.67;;;45.35;;
38785;SDS011;24535;45.508;12.252;2023-01-19T03:25:32;56.97;;;43.70;;
38785;SDS011;24535;45.508;12.252;2023-01-19T03:28:01;55.63;;;42.20;;
38785;SDS011;24535;45.508;12.252;2023-01-19T03:30:29;58.63;;;43.92;;
38785;SDS011;24535;45.508;12.252;2023-01-19T03:33:04;52.78;;;41.67;;
38785;SDS011;24535;45.508;12.252;2023-01-19T03:35:47;52.65;;;42.08;;
38785;SDS011;24535;45.508;12.252;2023-01-19T03:38:17;54.15;;;40.78;;
38785;SDS011;24535;45.508;12.252;2023-01-19T03:40:49;50.38;;;40.22;;
38785;SDS011;24535;45.508;12.252;2023-01-19T03:43:17;50.80;;;42.13;;
38785;SDS011;24535;45.508;12.252;2023-01-19T03:45:44;51.22;;;40.97;;
38785;SDS011;24535;45.508;12.252;2023-01-19T03:48:10;56.10;;;41.03;;
38785;SDS011;24535;45.508;12.252;2023-01-19T03:50:36;54.35;;;42.17;;
38785;SDS011;24535;45.508;12.252;2023-01-19T03:53:06;52.42;;;40.20;;
38785;SDS011;24535;45.508;12.252;2023-01-19T03:55:35;53.00;;;41.15;;
38785;SDS011;24535;45.508;12.252;2023-01-19T03:58:02;51.13;;;39.35;;
38785;SDS011;24535;45.508;12.252;2023-01-19T04:00:28;53.80;;;39.80;;
38785;SDS011;24535;45.508;12.252;2023-01-19T04:02:54;51.53;;;39.22;;
38785;SDS011;24535;45.508;12.252;2023-01-19T04:05:20;50.60;;;39.85;;
38785;SDS011;24535;45.508;12.252;2023-01-19T04:07:49;49.83;;;38.78;;
38785;SDS011;24535;45.508;12.252;2023-01-19T04:10:16;48.83;;;37.47;;
38785;SDS011;24535;45.508;12.252;2023-01-19T04:12:43;48.85;;;39.38;;
38785;SDS011;24535;45.508;12.252;2023-01-19T04:15:09;52.25;;;39.20;;
38785;SDS011;24535;45.508;12.252;2023-01-19T04:17:34;49.53;;;38.53;;
38785;SDS011;24535;45.508;12.252;2023-01-19T04:19:59;49.95;;;37.78;;
38785;SDS011;24535;45.508;12.252;2023-01-19T04:22:25;48.22;;;38.00;;
38785;SDS011;24535;45.508;12.252;2023-01-19T04:24:50;45.78;;;37.58;;
38785;SDS011;24535;45.508;12.252;2023-01-19T04:27:16;47.63;;;38.08;;
38785;SDS011;24535;45.508;12.252;2023-01-19T04:29:41;42.97;;;34.78;;
38785;SDS011;24535;45.508;12.252;2023-01-19T04:32:07;44.33;;;34.55;;
38785;SDS011;24535;45.508;12.252;2023-01-19T04:34:33;35.53;;;28.83;;
38785;SDS011;24535;45.508;12.252;2023-01-19T04:36:58;37.78;;;29.05;;
38785;SDS011;24535;45.508;12.252;2023-01-19T04:39:24;33.92;;;26.50;;
38785;SDS011;24535;45.508;12.252;2023-01-19T04:41:50;32.90;;;26.10;;
38785;SDS011;24535;45.508;12.252;2023-01-19T04:44:16;30.25;;;24.17;;
38785;SDS011;24535;45.508;12.252;2023-01-19T04:46:42;29.85;;;23.73;;
38785;SDS011;24535;45.508;12.252;2023-01-19T04:49:08;28.73;;;23.65;;
38785;SDS011;24535;45.508;12.252;2023-01-19T04:51:34;24.83;;;20.15;;
38785;SDS011;24535;45.508;12.252;2023-01-19T04:53:59;24.48;;;20.52;;
38785;SDS011;24535;45.508;12.252;2023-01-19T04:56:25;23.88;;;19.95;;
38785;SDS011;24535;45.508;12.252;2023-01-19T04:58:52;22.77;;;19.25;;
38785;SDS011;24535;45.508;12.252;2023-01-19T05:01:17;21.58;;;16.70;;
38785;SDS011;24535;45.508;12.252;2023-01-19T05:03:42;19.27;;;16.60;;
38785;SDS011;24535;45.508;12.252;2023-01-19T05:06:08;18.00;;;15.35;;
38785;SDS011;24535;45.508;12.252;2023-01-19T05:08:33;19.63;;;15.02;;
38785;SDS011;24535;45.508;12.252;2023-01-19T05:10:59;16.33;;;14.50;;
38785;SDS011;24535;45.508;12.252;2023-01-19T05:13:24;16.73;;;14.55;;
38785;SDS011;24535;45.508;12.252;2023-01-19T05:15:50;15.88;;;13.77;;
38785;SDS011;24535;45.508;12.252;2023-01-19T05:18:15;15.15;;;13.05;;
38785;SDS011;24535;45.508;12.252;2023-01-19T05:20:41;14.65;;;12.23;;
38785;SDS011;24535;45.508;12.252;2023-01-19T05:23:07;14.50;;;11.50;;
38785;SDS011;24535;45.508;12.252;2023-01-19T05:25:32;13.13;;;11.73;;
38785;SDS011;24535;45.508;12.252;2023-01-19T05:27:58;15.38;;;9.90;;
38785;SDS011;24535;45.508;12.252;2023-01-19T05:30:23;10.52;;;9.43;;
38785;SDS011;24535;45.508;12.252;2023-01-19T05:32:49;10.45;;;8.77;;
38785;SDS011;24535;45.508;12.252;2023-01-19T05:35:14;8.98;;;7.30;;
38785;SDS011;24535;45.508;12.252;2023-01-19T05:37:41;7.70;;;6.72;;
38785;SDS011;24535;45.508;12.252;2023-01-19T05:40:07;6.40;;;5.75;;
38785;SDS011;24535;45.508;12.252;2023-01-19T05:42:33;5.43;;;4.55;;
38785;SDS011;24535;45.508;12.252;2023-01-19T05:44:58;3.83;;;3.42;;
38785;SDS011;24535;45.508;12.252;2023-01-19T05:47:24;2.80;;;2.50;;
38785;SDS011;24535;45.508;12.252;2023-01-19T05:49:50;3.08;;;2.25;;
38785;SDS011;24535;45.508;12.252;2023-01-19T05:52:15;2.72;;;2.20;;
38785;SDS011;24535;45.508;12.252;2023-01-19T05:54:41;2.38;;;1.90;;
38785;SDS011;24535;45.508;12.252;2023-01-19T05:57:06;1.75;;;1.35;;
38785;SDS011;24535;45.508;12.252;2023-01-19T05:59:32;2.38;;;1.30;;
38785;SDS011;24535;45.508;12.252;2023-01-19T06:01:57;1.60;;;1.00;;
38785;SDS011;24535;45.508;12.252;2023-01-19T06:04:24;0.88;;;0.88;;
38785;SDS011;24535;45.508;12.252;2023-01-19T06:06:50;0.80;;;0.80;;
38785;SDS011;24535;45.508;12.252;2023-01-19T06:09:15;1.65;;;0.70;;
38785;SDS011;24535;45.508;12.252;2023-01-19T06:11:45;0.60;;;0.60;;
38785;SDS011;24535;45.508;12.252;2023-01-19T06:14:10;0.80;;;0.80;;
38785;SDS011;24535;45.508;12.252;2023-01-19T06:16:36;0.65;;;0.63;;
38785;SDS011;24535;45.508;12.252;2023-01-19T06:19:05;2.10;;;0.80;;
38785;SDS011;24535;45.508;12.252;2023-01-19T06:21:33;0.82;;;0.82;;
38785;SDS011;24535;45.508;12.252;2023-01-19T06:23:58;1.50;;;1.00;;
38785;SDS011;24535;45.508;12.252;2023-01-19T06:26:24;1.30;;;1.10;;
38785;SDS011;24535;45.508;12.252;2023-01-19T06:28:50;1.67;;;1.42;;
38785;SDS011;24535;45.508;12.252;2023-01-19T06:31:16;1.25;;;1.02;;
38785;SDS011;24535;45.508;12.252;2023-01-19T06:33:42;0.98;;;0.98;;
38785;SDS011;24535;45.508;12.252;2023-01-19T06:36:07;1.38;;;0.90;;
38785;SDS011;24535;45.508;12.252;2023-01-19T06:38:33;1.15;;;1.05;;
38785;SDS011;24535;45.508;12.252;2023-01-19T06:40:58;1.40;;;1.30;;
38785;SDS011;24535;45.508;12.252;2023-01-19T06:43:26;0.93;;;0.90;;
38785;SDS011;24535;45.508;12.252;2023-01-19T06:45:52;1.40;;;1.15;;
38785;SDS011;24535;45.508;12.252;2023-01-19T06:48:18;0.98;;;0.88;;
38785;SDS011;24535;45.508;12.252;2023-01-19T06:50:45;1.13;;;1.02;;
38785;SDS011;24535;45.508;12.252;2023-01-19T06:53:11;3.15;;;1.30;;
38785;SDS011;24535;45.508;12.252;2023-01-19T06:55:40;1.40;;;1.00;;
38785;SDS011;24535;45.508;12.252;2023-01-19T06:58:05;1.25;;;1.10;;
38785;SDS011;24535;45.508;12.252;2023-01-19T07:00:31;1.27;;;1.00;;
38785;SDS011;24535;45.508;12.252;2023-01-19T07:02:56;1.63;;;1.35;;
38785;SDS011;24535;45.508;12.252;2023-01-19T07:05:22;1.95;;;1.30;;
38785;SDS011;24535;45.508;12.252;2023-01-19T07:07:52;1.73;;;1.48;;
38785;SDS011;24535;45.508;12.252;2023-01-19T07:10:21;1.85;;;1.25;;
38785;SDS011;24535;45.508;12.252;2023-01-19T07:12:47;1.95;;;1.73;;
38785;SDS011;24535;45.508;12.252;2023-01-19T07:15:13;2.08;;;1.70;;
38785;SDS011;24535;45.508;12.252;2023-01-19T07:17:39;3.05;;;1.83;;
38785;SDS011;24535;45.508;12.252;2023-01-19T07:20:06;2.92;;;1.75;;
38785;SDS011;24535;45.508;12.252;2023-01-19T07:22:38;1.90;;;1.55;;
38785;SDS011;24535;45.508;12.252;2023-01-19T07:25:05;1.77;;;1.38;;
38785;SDS011;24535;45.508;12.252;2023-01-19T07:27:31;1.80;;;1.02;;
38785;SDS011;24535;45.508;12.252;2023-01-19T07:29:57;3.13;;;1.27;;
38785;SDS011;24535;45.508;12.252;2023-01-19T07:32:25;1.38;;;1.20;;
38785;SDS011;24535;45.508;12.252;2023-01-19T07:34:51;0.80;;;0.77;;
38785;SDS011;24535;45.508;12.252;2023-01-19T07:37:16;1.80;;;1.30;;
38785;SDS011;24535;45.508;12.252;2023-01-19T07:39:42;1.65;;;1.40;;
38785;SDS011;24535;45.508;12.252;2023-01-19T07:42:07;1.65;;;1.13;;
38785;SDS011;24535;45.508;12.252;2023-01-19T07:44:33;1.50;;;1.40;;
38785;SDS011;24535;45.508;12.252;2023-01-19T07:46:58;1.23;;;1.13;;
38785;SDS011;24535;45.508;12.252;2023-01-19T07:49:24;1.33;;;1.23;;
38785;SDS011;24535;45.508;12.252;2023-01-19T07:51:49;1.23;;;1.10;;
38785;SDS011;24535;45.508;12.252;2023-01-19T07:54:15;1.40;;;1.30;;
38785;SDS011;24535;45.508;12.252;2023-01-19T07:56:40;2.13;;;1.50;;
38785;SDS011;24535;45.508;12.252;2023-01-19T07:59:06;1.95;;;1.48;;
38785;SDS011;24535;45.508;12.252;2023-01-19T08:01:33;1.60;;;1.40;;
38785;SDS011;24535;45.508;12.252;2023-01-19T08:03:59;1.85;;;1.20;;
38785;SDS011;24535;45.508;12.252;2023-01-19T08:06:34;1.95;;;1.45;;
38785;SDS011;24535;45.508;12.252;2023-01-19T08:09:02;1.30;;;1.20;;
38785;SDS011;24535;45.508;12.252;2023-01-19T08:11:31;1.60;;;1.48;;
38785;SDS011;24535;45.508;12.252;2023-01-19T08:13:57;1.50;;;1.40;;
38785;SDS011;24535;45.508;12.252;2023-01-19T08:16:23;2.17;;;1.77;;
38785;SDS011;24535;45.508;12.252;2023-01-19T08:18:49;1.60;;;1.50;;
38785;SDS011;24535;45.508;12.252;2023-01-19T08:21:14;2.35;;;1.45;;
38785;SDS011;24535;45.508;12.252;2023-01-19T08:23:40;2.65;;;1.70;;
38785;SDS011;24535;45.508;12.252;2023-01-19T08:26:21;3.03;;;2.08;;
38785;SDS011;24535;45.508;12.252;2023-01-19T08:28:51;3.35;;;2.40;;
38785;SDS011;24535;45.508;12.252;2023-01-19T08:31:21;2.72;;;1.65;;
38785;SDS011;24535;45.508;12.252;2023-01-19T08:33:47;2.17;;;1.70;;
38785;SDS011;24535;45.508;12.252;2023-01-19T08:36:13;2.55;;;1.65;;
38785;SDS011;24535;45.508;12.252;2023-01-19T08:38:39;1.60;;;1.45;;
38785;SDS011;24535;45.508;12.252;2023-01-19T08:41:07;2.10;;;1.50;;
38785;SDS011;24535;45.508;12.252;2023-01-19T08:43:33;4.85;;;1.85;;
38785;SDS011;24535;45.508;12.252;2023-01-19T08:45:59;2.38;;;2.15;;
38785;SDS011;24535;45.508;12.252;2023-01-19T08:48:24;2.28;;;1.83;;
38785;SDS011;24535;45.508;12.252;2023-01-19T08:50:51;2.28;;;1.60;;
38785;SDS011;24535;45.508;12.252;2023-01-19T08:53:17;2.60;;;2.40;;
38785;SDS011;24535;45.508;12.252;2023-01-19T08:55:45;2.33;;;2.10;;
38785;SDS011;24535;45.508;12.252;2023-01-19T08:58:11;1.58;;;1.48;;
38785;SDS011;24535;45.508;12.252;2023-01-19T09:00:37;2.78;;;1.65;;
38785;SDS011;24535;45.508;12.252;2023-01-19T09:03:07;2.08;;;1.33;;
38785;SDS011;24535;45.508;12.252;2023-01-19T09:05:35;2.53;;;1.73;;
38785;SDS011;24535;45.508;12.252;2023-01-19T09:08:07;1.77;;;1.67;;
38785;SDS011;24535;45.508;12.252;2023-01-19T09:10:34;5.38;;;1.30;;
38785;SDS011;24535;45.508;12.252;2023-01-19T09:13:02;1.83;;;1.60;;
38785;SDS011;24535;45.508;12.252;2023-01-19T09:15:29;1.42;;;1.23;;
38785;SDS011;24535;45.508;12.252;2023-01-19T09:17:57;2.60;;;1.63;;
38785;SDS011;24535;45.508;12.252;2023-01-19T09:20:23;1.40;;;1.30;;
38785;SDS011;24535;45.508;12.252;2023-01-19T09:22:49;1.40;;;1.30;;
38785;SDS011;24535;45.508;12.252;2023-01-19T09:25:14;2.13;;;1.50;;
38785;SDS011;24535;45.508;12.252;2023-01-19T09:27:40;1.80;;;1.42;;
38785;SDS011;24535;45.508;12.252;2023-01-19T09:30:06;1.63;;;1.40;;
38785;SDS011;24535;45.508;12.252;2023-01-19T09:32:35;2.05;;;1.52;;
38785;SDS011;24535;45.508;12.252;2023-01-19T09:35:01;1.10;;;1.00;;
38785;SDS011;24535;45.508;12.252;2023-01-19T09:37:26;1.30;;;1.08;;
38785;SDS011;24535;45.508;12.252;2023-01-19T09:39:52;1.88;;;1.30;;
38785;SDS011;24535;45.508;12.252;2023-01-19T09:42:20;2.22;;;1.70;;
38785;SDS011;24535;45.508;12.252;2023-01-19T09:44:54;3.75;;;2.05;;
38785;SDS011;24535;45.508;12.252;2023-01-19T09:47:22;2.30;;;1.57;;
38785;SDS011;24535;45.508;12.252;2023-01-19T09:49:53;2.40;;;1.20;;
38785;SDS011;24535;45.508;12.252;2023-01-19T09:52:25;0.90;;;0.90;;
38785;SDS011;24535;45.508;12.252;2023-01-19T09:54:52;1.10;;;1.00;;
38785;SDS011;24535;45.508;12.252;2023-01-19T09:59:51;1.52;;;1.02;;
38785;SDS011;24535;45.508;12.252;2023-01-19T10:10:27;1.33;;;1.10;;
38785;SDS011;24535;45.508;12.252;2023-01-19T10:18:27;1.65;;;1.38;;
38785;SDS011;24535;45.508;12.252;2023-01-19T10:21:01;1.67;;;1.45;;
38785;SDS011;24535;45.508;12.252;2023-01-19T10:23:38;1.67;;;1.35;;
38785;SDS011;24535;45.508;12.252;2023-01-19T10:26:09;2.42;;;1.38;;
38785;SDS011;24535;45.508;12.252;2023-01-19T10:28:41;1.33;;;1.17;;
38785;SDS011;24535;45.508;12.252;2023-01-19T10:31:09;1.00;;;0.90;;
38785;SDS011;24535;45.508;12.252;2023-01-19T10:33:36;0.80;;;0.80;;
38785;SDS011;24535;45.508;12.252;2023-01-19T10:36:03;0.85;;;0.85;;
38785;SDS011;24535;45.508;12.252;2023-01-19T10:38:30;1.55;;;0.77;;
38785;SDS011;24535;45.508;12.252;2023-01-19T10:41:00;1.13;;;0.70;;
38785;SDS011;24535;45.508;12.252;2023-01-19T10:43:35;0.70;;;0.70;;
38785;SDS011;24535;45.508;12.252;2023-01-19T10:46:04;1.20;;;0.90;;
38785;SDS011;24535;45.508;12.252;2023-01-19T10:48:37;0.98;;;0.88;;
38785;SDS011;24535;45.508;12.252;2023-01-19T10:51:06;1.08;;;1.00;;
38785;SDS011;24535;45.508;12.252;2023-01-19T10:53:33;0.70;;;0.70;;
38785;SDS011;24535;45.508;12.252;2023-01-19T10:56:10;1.15;;;0.90;;
38785;SDS011;24535;45.508;12.252;2023-01-19T10:59:00;0.93;;;0.88;;
38785;SDS011;24535;45.508;12.252;2023-01-19T11:01:28;1.20;;;1.00;;
38785;SDS011;24535;45.508;12.252;2023-01-19T11:03:55;1.23;;;1.00;;
38785;SDS011;24535;45.508;12.252;2023-01-19T11:06:29;1.27;;;0.60;;
38785;SDS011;24535;45.508;12.252;2023-01-19T11:09:18;0.77;;;0.70;;
38785;SDS011;24535;45.508;12.252;2023-01-19T11:11:44;1.05;;;0.90;;
38785;SDS011;24535;45.508;12.252;2023-01-19T11:14:13;2.05;;;1.13;;
38785;SDS011;24535;45.508;12.252;2023-01-19T11:16:43;1.30;;;1.10;;
38785;SDS011;24535;45.508;12.252;2023-01-19T11:19:16;1.10;;;1.00;;
38785;SDS011;24535;45.508;12.252;2023-01-19T11:21:44;1.17;;;1.00;;
38785;SDS011;24535;45.508;12.252;2023-01-19T11:24:10;1.88;;;1.20;;
38785;SDS011;24535;45.508;12.252;2023-01-19T11:29:22;2.20;;;1.00;;
38785;SDS011;24535;45.508;12.252;2023-01-19T11:31:49;1.02;;;1.00;;
38785;SDS011;24535;45.508;12.252;2023-01-19T11:34:32;2.50;;;1.27;;
38785;SDS011;24535;45.508;12.252;2023-01-19T11:37:02;1.63;;;1.00;;
38785;SDS011;24535;45.508;12.252;2023-01-19T11:39:55;1.10;;;1.00;;
38785;SDS011;24535;45.508;12.252;2023-01-19T11:42:22;1.55;;;1.10;;
38785;SDS011;24535;45.508;12.252;2023-01-19T11:50:22;1.50;;;1.40;;
38785;SDS011;24535;45.508;12.252;2023-01-19T11:52:56;1.50;;;1.40;;
38785;SDS011;24535;45.508;12.252;2023-01-19T11:55:40;2.92;;;1.52;;
38785;SDS011;24535;45.508;12.252;2023-01-19T11:58:13;3.22;;;1.90;;
38785;SDS011;24535;45.508;12.252;2023-01-19T12:00:45;2.78;;;1.65;;
38785;SDS011;24535;45.508;12.252;2023-01-19T12:03:26;4.45;;;3.38;;
38785;SDS011;24535;45.508;12.252;2023-01-19T12:06:03;4.68;;;3.00;;
38785;SDS011;24535;45.508;12.252;2023-01-19T12:08:36;2.53;;;2.33;;
38785;SDS011;24535;45.508;12.252;2023-01-19T12:11:03;3.58;;;2.45;;
38785;SDS011;24535;45.508;12.252;2023-01-19T12:13:30;2.40;;;2.20;;
38785;SDS011;24535;45.508;12.252;2023-01-19T12:16:04;2.05;;;1.88;;
38785;SDS011;24535;45.508;12.252;2023-01-19T12:18:35;2.90;;;2.47;;
38785;SDS011;24535;45.508;12.252;2023-01-19T12:21:12;2.05;;;1.63;;
38785;SDS011;24535;45.508;12.252;2023-01-19T12:27:03;2.33;;;2.13;;
38785;SDS011;24535;45.508;12.252;2023-01-19T12:29:32;2.40;;;2.15;;
38785;SDS011;24535;45.508;12.252;2023-01-19T12:39:51;2.10;;;1.85;;
38785;SDS011;24535;45.508;12.252;2023-01-19T12:42:18;3.03;;;2.78;;
38785;SDS011;24535;45.508;12.252;2023-01-19T12:44:44;3.08;;;2.55;;
38785;SDS011;24535;45.508;12.252;2023-01-19T12:49:40;3.58;;;2.30;;
38785;SDS011;24535;45.508;12.252;2023-01-19T12:52:30;2.63;;;2.15;;
38785;SDS011;24535;45.508;12.252;2023-01-19T12:57:31;3.95;;;2.60;;
38785;SDS011;24535;45.508;12.252;2023-01-19T13:00:02;2.75;;;2.45;;
38785;SDS011;24535;45.508;12.252;2023-01-19T13:02:52;1.97;;;1.80;;
38785;SDS011;24535;45.508;12.252;2023-01-19T13:13:27;3.70;;;2.53;;
38785;SDS011;24535;45.508;12.252;2023-01-19T13:15:53;3.70;;;3.28;;
38785;SDS011;24535;45.508;12.252;2023-01-19T13:20:52;4.90;;;3.15;;
38785;SDS011;24535;45.508;12.252;2023-01-19T13:25:49;4.22;;;3.10;;
38785;SDS011;24535;45.508;12.252;2023-01-19T13:28:18;5.53;;;2.97;;
38785;SDS011;24535;45.508;12.252;2023-01-19T13:30:53;3.38;;;2.80;;
38785;SDS011;24535;45.508;12.252;2023-01-19T13:33:23;2.40;;;2.20;;
38785;SDS011;24535;45.508;12.252;2023-01-19T13:35:52;3.03;;;2.70;;
38785;SDS011;24535;45.508;12.252;2023-01-19T13:38:20;3.22;;;2.80;;
38785;SDS011;24535;45.508;12.252;2023-01-19T13:40:47;3.92;;;2.60;;
38785;SDS011;24535;45.508;12.252;2023-01-19T13:43:17;2.55;;;2.22;;
38785;SDS011;24535;45.508;12.252;2023-01-19T13:45:47;3.28;;;2.63;;
38785;SDS011;24535;45.508;12.252;2023-01-19T13:48:16;2.60;;;2.28;;
38785;SDS011;24535;45.508;12.252;2023-01-19T13:50:56;3.03;;;1.92;;
38785;SDS011;24535;45.508;12.252;2023-01-19T13:53:23;2.25;;;2.03;;
38785;SDS011;24535;45.508;12.252;2023-01-19T14:01:33;2.28;;;2.08;;
38785;SDS011;24535;45.508;12.252;2023-01-19T14:03:59;2.60;;;2.40;;
38785;SDS011;24535;45.508;12.252;2023-01-19T14:06:32;2.50;;;2.30;;
38785;SDS011;24535;45.508;12.252;2023-01-19T14:09:06;2.60;;;2.40;;
38785;SDS011;24535;45.508;12.252;2023-01-19T14:11:36;2.08;;;1.98;;
38785;SDS011;24535;45.508;12.252;2023-01-19T14:14:02;2.15;;;1.95;;
38785;SDS011;24535;45.508;12.252;2023-01-19T14:16:27;2.42;;;2.22;;
38785;SDS011;24535;45.508;12.252;2023-01-19T14:19:02;2.95;;;2.38;;
38785;SDS011;24535;45.508;12.252;2023-01-19T14:21:38;2.22;;;2.03;;
38785;SDS011;24535;45.508;12.252;2023-01-19T14:24:07;2.05;;;1.85;;
38785;SDS011;24535;45.508;12.252;2023-01-19T14:26:41;3.13;;;2.28;;
38785;SDS011;24535;45.508;12.252;2023-01-19T14:29:27;2.00;;;1.90;;
38785;SDS011;24535;45.508;12.252;2023-01-19T14:34:43;3.97;;;2.22;;
38785;SDS011;24535;45.508;12.252;2023-01-19T14:42:25;4.72;;;3.45;;
38785;SDS011;24535;45.508;12.252;2023-01-19T14:44:58;3.88;;;3.08;;
38785;SDS011;24535;45.508;12.252;2023-01-19T14:47:36;2.97;;;2.67;;
38785;SDS011;24535;45.508;12.252;2023-01-19T14:50:06;2.63;;;2.33;;
38785;SDS011;24535;45.508;12.252;2023-01-19T14:52:42;3.15;;;2.85;;
38785;SDS011;24535;45.508;12.252;2023-01-19T14:55:15;3.08;;;2.78;;
38785;SDS011;24535;45.508;12.252;2023-01-19T14:57:46;3.10;;;2.80;;
38785;SDS011;24535;45.508;12.252;2023-01-19T15:00:16;2.85;;;2.65;;
38785;SDS011;24535;45.508;12.252;2023-01-19T15:02:43;2.88;;;2.50;;
38785;SDS011;24535;45.508;12.252;2023-01-19T15:05:09;2.42;;;2.22;;
38785;SDS011;24535;45.508;12.252;2023-01-19T15:07:36;3.35;;;2.60;;
38785;SDS011;24535;45.508;12.252;2023-01-19T15:10:04;3.70;;;2.42;;
38785;SDS011;24535;45.508;12.252;2023-01-19T15:12:35;2.78;;;2.58;;
38785;SDS011;24535;45.508;12.252;2023-01-19T15:15:01;2.85;;;2.65;;
38785;SDS011;24535;45.508;12.252;2023-01-19T15:17:26;2.90;;;2.70;;
38785;SDS011;24535;45.508;12.252;2023-01-19T15:19:52;3.00;;;2.70;;
38785;SDS011;24535;45.508;12.252;2023-01-19T15:22:19;3.15;;;2.85;;
38785;SDS011;24535;45.508;12.252;2023-01-19T15:24:46;3.28;;;2.33;;
38785;SDS011;24535;45.508;12.252;2023-01-19T15:27:13;2.80;;;2.60;;
38785;SDS011;24535;45.508;12.252;2023-01-19T15:29:40;3.22;;;2.58;;
38785;SDS011;24535;45.508;12.252;2023-01-19T15:32:10;3.30;;;2.47;;
38785;SDS011;24535;45.508;12.252;2023-01-19T15:34:37;3.13;;;2.65;;
38785;SDS011;24535;45.508;12.252;2023-01-19T15:37:02;4.22;;;2.70;;
38785;SDS011;24535;45.508;12.252;2023-01-19T15:39:28;2.35;;;2.17;;
38785;SDS011;24535;45.508;12.252;2023-01-19T15:41:54;3.28;;;2.80;;
38785;SDS011;24535;45.508;12.252;2023-01-19T15:44:19;4.70;;;2.75;;
38785;SDS011;24535;45.508;12.252;2023-01-19T15:46:45;2.42;;;2.22;;
38785;SDS011;24535;45.508;12.252;2023-01-19T15:49:10;3.70;;;2.78;;
38785;SDS011;24535;45.508;12.252;2023-01-19T15:51:36;4.53;;;2.88;;
38785;SDS011;24535;45.508;12.252;2023-01-19T15:54:02;2.72;;;2.53;;
38785;SDS011;24535;45.508;12.252;2023-01-19T15:56:28;2.78;;;2.47;;
38785;SDS011;24535;45.508;12.252;2023-01-19T15:58:54;3.15;;;2.75;;
38785;SDS011;24535;45.508;12.252;2023-01-19T16:01:22;2.70;;;2.42;;